sensor_id;sensor_type;location;lat;lon;timestamp;P1;durP1;ratioP1;P2;durP2;ratioP2
12467;SDS011;57850;52.922;6.256;2023-05-10T00:01:05;14.82;;;11.93;;
12467;SDS011;57850;52.922;6.256;2023-05-10T00:03:31;16.90;;;12.13;;
12467;SDS011;57850;52.922;6.256;2023-05-10T00:05:58;15.23;;;12.48;;
12467;SDS011;57850;52.922;6.256;2023-05-10T00:08:26;17.27;;;12.70;;
12467;SDS011;57850;52.922;6.256;2023-05-10T00:10:52;18.40;;;12.95;;
12467;SDS011;57850;52.922;6.256;2023-05-10T00:13:19;16.98;;;12.10;;
12467;SDS011;57850;52.922;6.256;2023-05-10T00:15:45;17.80;;;13.20;;
12467;SDS011;57850;52.922;6.256;2023-05-10T00:18:12;18.23;;;13.15;;
12467;SDS011;57850;52.922;6.256;2023-05-10T00:20:38;18.58;;;12.93;;
12467;SDS011;57850;52.922;6.256;2023-05-10T00:23:05;21.92;;;13.45;;
12467;SDS011;57850;52.922;6.256;2023-05-10T00:25:33;21.77;;;14.23;;
12467;SDS011;57850;52.922;6.256;2023-05-10T00:27:59;20.48;;;14.70;;
12467;SDS011;57850;52.922;6.256;2023-05-10T00:30:26;23.55;;;14.70;;
12467;SDS011;57850;52.922;6.256;2023-05-10T00:32:53;23.58;;;15.57;;
12467;SDS011;57850;52.922;6.256;2023-05-10T00:35:19;25.25;;;15.73;;
12467;SDS011;57850;52.922;6.256;2023-05-10T00:37:46;24.08;;;15.95;;
12467;SDS011;57850;52.922;6.256;2023-05-10T00:40:13;26.20;;;15.70;;
12467;SDS011;57850;52.922;6.256;2023-05-10T00:42:41;23.88;;;15.43;;
12467;SDS011;57850;52.922;6.256;2023-05-10T00:45:08;23.23;;;14.85;;
12467;SDS011;57850;52.922;6.256;2023-05-10T00:47:34;23.02;;;14.13;;
12467;SDS011;57850;52.922;6.256;2023-05-10T00:50:01;22.38;;;14.75;;
12467;SDS011;57850;52.922;6.256;2023-05-10T00:52:28;23.00;;;15.30;;
12467;SDS011;57850;52.922;6.256;2023-05-10T00:54:56;22.17;;;15.45;;
12467;SDS011;57850;52.922;6.256;2023-05-10T00:57:23;24.25;;;16.25;;
12467;SDS011;57850;52.922;6.256;2023-05-10T00:59:51;25.65;;;15.68;;
12467;SDS011;57850;52.922;6.256;2023-05-10T01:02:18;24.73;;;16.58;;
12467;SDS011;57850;52.922;6.256;2023-05-10T01:04:44;23.83;;;14.57;;
12467;SDS011;57850;52.922;6.256;2023-05-10T01:07:11;24.02;;;14.48;;
12467;SDS011;57850;52.922;6.256;2023-05-10T01:09:38;27.40;;;15.63;;
12467;SDS011;57850;52.922;6.256;2023-05-10T01:12:04;25.95;;;15.85;;
12467;SDS011;57850;52.922;6.256;2023-05-10T01:14:32;21.10;;;15.35;;
12467;SDS011;57850;52.922;6.256;2023-05-10T01:17:02;23.73;;;15.75;;
12467;SDS011;57850;52.922;6.256;2023-05-10T01:19:31;24.42;;;15.10;;
12467;SDS011;57850;52.922;6.256;2023-05-10T01:22:02;27.77;;;15.10;;
12467;SDS011;57850;52.922;6.256;2023-05-10T01:24:58;22.45;;;13.88;;
12467;SDS011;57850;52.922;6.256;2023-05-10T01:27:51;18.65;;;14.10;;
12467;SDS011;57850;52.922;6.256;2023-05-10T01:30:47;22.52;;;14.35;;
12467;SDS011;57850;52.922;6.256;2023-05-10T01:33:30;18.88;;;13.60;;
12467;SDS011;57850;52.922;6.256;2023-05-10T01:36:02;19.83;;;14.07;;
12467;SDS011;57850;52.922;6.256;2023-05-10T01:38:33;22.30;;;14.65;;
12467;SDS011;57850;52.922;6.256;2023-05-10T01:41:09;17.65;;;13.80;;
12467;SDS011;57850;52.922;6.256;2023-05-10T01:43:43;23.70;;;14.70;;
12467;SDS011;57850;52.922;6.256;2023-05-10T01:46:20;19.42;;;14.57;;
12467;SDS011;57850;52.922;6.256;2023-05-10T01:48:55;18.50;;;13.75;;
12467;SDS011;57850;52.922;6.256;2023-05-10T01:51:25;18.73;;;13.05;;
12467;SDS011;57850;52.922;6.256;2023-05-10T01:53:57;17.30;;;12.98;;
12467;SDS011;57850;52.922;6.256;2023-05-10T01:56:26;19.65;;;13.82;;
12467;SDS011;57850;52.922;6.256;2023-05-10T01:58:55;16.67;;;13.38;;
12467;SDS011;57850;52.922;6.256;2023-05-10T02:01:24;16.67;;;13.32;;
12467;SDS011;57850;52.922;6.256;2023-05-10T02:03:52;19.08;;;13.73;;
12467;SDS011;57850;52.922;6.256;2023-05-10T02:06:21;17.05;;;13.27;;
12467;SDS011;57850;52.922;6.256;2023-05-10T02:08:50;17.83;;;13.52;;
12467;SDS011;57850;52.922;6.256;2023-05-10T02:11:18;16.25;;;13.57;;
12467;SDS011;57850;52.922;6.256;2023-05-10T02:13:47;15.43;;;12.90;;
12467;SDS011;57850;52.922;6.256;2023-05-10T02:16:15;15.43;;;12.45;;
12467;SDS011;57850;52.922;6.256;2023-05-10T02:18:43;15.25;;;13.07;;
12467;SDS011;57850;52.922;6.256;2023-05-10T02:21:13;15.63;;;11.70;;
12467;SDS011;57850;52.922;6.256;2023-05-10T02:23:41;13.60;;;10.73;;
12467;SDS011;57850;52.922;6.256;2023-05-10T02:26:09;12.52;;;10.32;;
12467;SDS011;57850;52.922;6.256;2023-05-10T02:28:39;14.20;;;10.85;;
12467;SDS011;57850;52.922;6.256;2023-05-10T02:31:06;12.48;;;10.82;;
12467;SDS011;57850;52.922;6.256;2023-05-10T02:33:35;12.52;;;10.50;;
12467;SDS011;57850;52.922;6.256;2023-05-10T02:36:05;11.95;;;10.75;;
12467;SDS011;57850;52.922;6.256;2023-05-10T02:38:35;12.05;;;10.20;;
12467;SDS011;57850;52.922;6.256;2023-05-10T02:41:02;11.85;;;9.88;;
12467;SDS011;57850;52.922;6.256;2023-05-10T02:43:31;10.30;;;9.20;;
12467;SDS011;57850;52.922;6.256;2023-05-10T02:45:59;11.18;;;8.80;;
12467;SDS011;57850;52.922;6.256;2023-05-10T02:48:26;10.13;;;8.45;;
12467;SDS011;57850;52.922;6.256;2023-05-10T02:50:52;9.75;;;8.63;;
12467;SDS011;57850;52.922;6.256;2023-05-10T02:53:22;9.98;;;8.57;;
12467;SDS011;57850;52.922;6.256;2023-05-10T02:55:55;8.65;;;7.68;;
12467;SDS011;57850;52.922;6.256;2023-05-10T02:58:24;8.82;;;7.88;;
12467;SDS011;57850;52.922;6.256;2023-05-10T03:00:51;10.30;;;7.90;;
12467;SDS011;57850;52.922;6.256;2023-05-10T03:03:18;8.43;;;7.25;;
12467;SDS011;57850;52.922;6.256;2023-05-10T03:05:46;9.02;;;7.72;;
12467;SDS011;57850;52.922;6.256;2023-05-10T03:08:12;8.70;;;7.75;;
12467;SDS011;57850;52.922;6.256;2023-05-10T03:10:41;9.13;;;7.22;;
12467;SDS011;57850;52.922;6.256;2023-05-10T03:13:20;9.85;;;7.43;;
12467;SDS011;57850;52.922;6.256;2023-05-10T03:15:57;8.32;;;7.20;;
12467;SDS011;57850;52.922;6.256;2023-05-10T03:18:28;8.18;;;7.15;;
12467;SDS011;57850;52.922;6.256;2023-05-10T03:21:01;9.82;;;6.80;;
12467;SDS011;57850;52.922;6.256;2023-05-10T03:23:33;8.90;;;7.70;;
12467;SDS011;57850;52.922;6.256;2023-05-10T03:26:01;9.25;;;7.75;;
12467;SDS011;57850;52.922;6.256;2023-05-10T03:28:32;8.45;;;7.55;;
12467;SDS011;57850;52.922;6.256;2023-05-10T03:31:00;8.68;;;7.78;;
12467;SDS011;57850;52.922;6.256;2023-05-10T03:33:28;11.23;;;8.48;;
12467;SDS011;57850;52.922;6.256;2023-05-10T03:35:55;10.68;;;8.85;;
12467;SDS011;57850;52.922;6.256;2023-05-10T03:38:21;9.57;;;8.57;;
12467;SDS011;57850;52.922;6.256;2023-05-10T03:40:48;10.15;;;8.68;;
12467;SDS011;57850;52.922;6.256;2023-05-10T03:43:15;9.07;;;8.18;;
12467;SDS011;57850;52.922;6.256;2023-05-10T03:45:42;9.75;;;8.75;;
12467;SDS011;57850;52.922;6.256;2023-05-10T03:48:09;10.70;;;8.63;;
12467;SDS011;57850;52.922;6.256;2023-05-10T03:50:36;9.95;;;8.52;;
12467;SDS011;57850;52.922;6.256;2023-05-10T03:53:02;9.50;;;8.57;;
12467;SDS011;57850;52.922;6.256;2023-05-10T03:55:29;11.45;;;8.27;;
12467;SDS011;57850;52.922;6.256;2023-05-10T03:57:59;10.27;;;8.73;;
12467;SDS011;57850;52.922;6.256;2023-05-10T04:00:25;10.25;;;9.25;;
12467;SDS011;57850;52.922;6.256;2023-05-10T04:02:53;9.90;;;8.75;;
12467;SDS011;57850;52.922;6.256;2023-05-10T04:05:20;11.60;;;8.75;;
12467;SDS011;57850;52.922;6.256;2023-05-10T04:07:46;11.13;;;9.10;;
12467;SDS011;57850;52.922;6.256;2023-05-10T04:10:14;10.70;;;9.43;;
12467;SDS011;57850;52.922;6.256;2023-05-10T04:12:41;9.85;;;8.80;;
12467;SDS011;57850;52.922;6.256;2023-05-10T04:15:08;10.93;;;9.40;;
12467;SDS011;57850;52.922;6.256;2023-05-10T04:17:35;9.73;;;8.73;;
12467;SDS011;57850;52.922;6.256;2023-05-10T04:20:04;10.07;;;8.90;;
12467;SDS011;57850;52.922;6.256;2023-05-10T04:22:32;10.18;;;9.07;;
12467;SDS011;57850;52.922;6.256;2023-05-10T04:24:58;9.35;;;8.38;;
12467;SDS011;57850;52.922;6.256;2023-05-10T04:27:25;11.10;;;8.60;;
12467;SDS011;57850;52.922;6.256;2023-05-10T04:29:52;9.23;;;8.07;;
12467;SDS011;57850;52.922;6.256;2023-05-10T04:32:18;9.70;;;8.57;;
12467;SDS011;57850;52.922;6.256;2023-05-10T04:34:45;8.88;;;7.93;;
12467;SDS011;57850;52.922;6.256;2023-05-10T04:37:13;8.75;;;7.95;;
12467;SDS011;57850;52.922;6.256;2023-05-10T04:39:40;9.15;;;8.32;;
12467;SDS011;57850;52.922;6.256;2023-05-10T04:42:06;8.27;;;7.47;;
12467;SDS011;57850;52.922;6.256;2023-05-10T04:44:33;8.27;;;7.35;;
12467;SDS011;57850;52.922;6.256;2023-05-10T04:46:59;8.48;;;7.57;;
12467;SDS011;57850;52.922;6.256;2023-05-10T04:49:27;8.88;;;8.07;;
12467;SDS011;57850;52.922;6.256;2023-05-10T04:51:53;8.32;;;7.50;;
12467;SDS011;57850;52.922;6.256;2023-05-10T04:54:21;9.13;;;8.30;;
12467;SDS011;57850;52.922;6.256;2023-05-10T04:56:48;9.30;;;8.40;;
12467;SDS011;57850;52.922;6.256;2023-05-10T04:59:14;9.43;;;8.52;;
12467;SDS011;57850;52.922;6.256;2023-05-10T05:01:41;9.25;;;8.30;;
12467;SDS011;57850;52.922;6.256;2023-05-10T05:04:07;10.40;;;8.15;;
12467;SDS011;57850;52.922;6.256;2023-05-10T05:06:34;11.90;;;9.00;;
12467;SDS011;57850;52.922;6.256;2023-05-10T05:09:00;9.68;;;8.75;;
12467;SDS011;57850;52.922;6.256;2023-05-10T05:11:28;10.70;;;9.20;;
12467;SDS011;57850;52.922;6.256;2023-05-10T05:13:55;11.00;;;9.68;;
12467;SDS011;57850;52.922;6.256;2023-05-10T05:16:23;10.63;;;9.52;;
12467;SDS011;57850;52.922;6.256;2023-05-10T05:18:50;9.65;;;8.75;;
12467;SDS011;57850;52.922;6.256;2023-05-10T05:21:17;11.48;;;9.48;;
12467;SDS011;57850;52.922;6.256;2023-05-10T05:23:44;12.05;;;10.73;;
12467;SDS011;57850;52.922;6.256;2023-05-10T05:26:11;10.00;;;8.95;;
12467;SDS011;57850;52.922;6.256;2023-05-10T05:28:39;9.80;;;8.80;;
12467;SDS011;57850;52.922;6.256;2023-05-10T05:31:05;9.10;;;8.20;;
12467;SDS011;57850;52.922;6.256;2023-05-10T05:33:33;9.05;;;8.15;;
12467;SDS011;57850;52.922;6.256;2023-05-10T05:36:00;8.85;;;8.05;;
12467;SDS011;57850;52.922;6.256;2023-05-10T05:38:27;7.93;;;7.18;;
12467;SDS011;57850;52.922;6.256;2023-05-10T05:40:53;8.13;;;7.32;;
12467;SDS011;57850;52.922;6.256;2023-05-10T05:43:20;7.28;;;6.57;;
12467;SDS011;57850;52.922;6.256;2023-05-10T05:45:47;8.82;;;6.22;;
12467;SDS011;57850;52.922;6.256;2023-05-10T05:48:14;7.93;;;6.60;;
12467;SDS011;57850;52.922;6.256;2023-05-10T05:50:41;6.22;;;5.60;;
12467;SDS011;57850;52.922;6.256;2023-05-10T05:53:08;7.03;;;6.03;;
12467;SDS011;57850;52.922;6.256;2023-05-10T05:55:34;6.88;;;6.10;;
12467;SDS011;57850;52.922;6.256;2023-05-10T05:58:01;5.60;;;5.05;;
12467;SDS011;57850;52.922;6.256;2023-05-10T06:00:28;6.20;;;5.60;;
12467;SDS011;57850;52.922;6.256;2023-05-10T06:02:55;8.68;;;5.78;;
12467;SDS011;57850;52.922;6.256;2023-05-10T06:05:22;6.47;;;5.88;;
12467;SDS011;57850;52.922;6.256;2023-05-10T06:07:48;8.35;;;6.53;;
12467;SDS011;57850;52.922;6.256;2023-05-10T06:10:15;6.82;;;6.13;;
12467;SDS011;57850;52.922;6.256;2023-05-10T06:12:41;7.40;;;6.60;;
12467;SDS011;57850;52.922;6.256;2023-05-10T06:15:08;7.03;;;6.30;;
12467;SDS011;57850;52.922;6.256;2023-05-10T06:17:36;5.90;;;5.25;;
12467;SDS011;57850;52.922;6.256;2023-05-10T06:20:05;6.07;;;5.43;;
12467;SDS011;57850;52.922;6.256;2023-05-10T06:22:33;5.82;;;5.22;;
12467;SDS011;57850;52.922;6.256;2023-05-10T06:24:59;6.18;;;5.57;;
12467;SDS011;57850;52.922;6.256;2023-05-10T06:27:26;7.20;;;5.45;;
12467;SDS011;57850;52.922;6.256;2023-05-10T06:29:52;6.65;;;5.80;;
12467;SDS011;57850;52.922;6.256;2023-05-10T06:32:19;6.72;;;5.85;;
12467;SDS011;57850;52.922;6.256;2023-05-10T06:34:45;8.00;;;6.57;;
12467;SDS011;57850;52.922;6.256;2023-05-10T06:37:13;8.85;;;6.55;;
12467;SDS011;57850;52.922;6.256;2023-05-10T06:39:39;6.68;;;5.82;;
12467;SDS011;57850;52.922;6.256;2023-05-10T06:42:06;9.18;;;7.38;;
12467;SDS011;57850;52.922;6.256;2023-05-10T06:44:33;10.07;;;7.18;;
12467;SDS011;57850;52.922;6.256;2023-05-10T06:46:59;9.07;;;6.88;;
12467;SDS011;57850;52.922;6.256;2023-05-10T06:49:26;9.20;;;7.75;;
12467;SDS011;57850;52.922;6.256;2023-05-10T06:51:52;8.10;;;7.05;;
12467;SDS011;57850;52.922;6.256;2023-05-10T06:54:20;8.38;;;7.57;;
12467;SDS011;57850;52.922;6.256;2023-05-10T06:56:46;9.60;;;6.65;;
12467;SDS011;57850;52.922;6.256;2023-05-10T06:59:13;7.90;;;7.10;;
12467;SDS011;57850;52.922;6.256;2023-05-10T07:01:40;9.35;;;6.72;;
12467;SDS011;57850;52.922;6.256;2023-05-10T07:04:06;6.57;;;5.97;;
12467;SDS011;57850;52.922;6.256;2023-05-10T07:06:33;8.02;;;6.03;;
12467;SDS011;57850;52.922;6.256;2023-05-10T07:08:59;6.95;;;6.05;;
12467;SDS011;57850;52.922;6.256;2023-05-10T07:11:27;6.18;;;5.55;;
12467;SDS011;57850;52.922;6.256;2023-05-10T07:13:54;8.35;;;5.90;;
12467;SDS011;57850;52.922;6.256;2023-05-10T07:16:20;7.07;;;6.07;;
12467;SDS011;57850;52.922;6.256;2023-05-10T07:18:47;5.28;;;4.75;;
12467;SDS011;57850;52.922;6.256;2023-05-10T07:21:15;6.25;;;5.60;;
12467;SDS011;57850;52.922;6.256;2023-05-10T07:23:42;7.10;;;5.30;;
12467;SDS011;57850;52.922;6.256;2023-05-10T07:26:08;5.72;;;5.13;;
12467;SDS011;57850;52.922;6.256;2023-05-10T07:28:36;5.18;;;4.68;;
12467;SDS011;57850;52.922;6.256;2023-05-10T07:31:04;5.07;;;4.57;;
12467;SDS011;57850;52.922;6.256;2023-05-10T07:33:30;5.95;;;5.35;;
12467;SDS011;57850;52.922;6.256;2023-05-10T07:35:57;5.05;;;4.30;;
12467;SDS011;57850;52.922;6.256;2023-05-10T07:38:23;5.18;;;4.53;;
12467;SDS011;57850;52.922;6.256;2023-05-10T07:40:50;5.45;;;4.93;;
12467;SDS011;57850;52.922;6.256;2023-05-10T07:43:16;4.88;;;4.47;;
12467;SDS011;57850;52.922;6.256;2023-05-10T07:45:44;4.90;;;4.40;;
12467;SDS011;57850;52.922;6.256;2023-05-10T07:48:11;5.90;;;5.30;;
12467;SDS011;57850;52.922;6.256;2023-05-10T07:50:37;4.95;;;4.45;;
12467;SDS011;57850;52.922;6.256;2023-05-10T07:53:03;4.60;;;4.20;;
12467;SDS011;57850;52.922;6.256;2023-05-10T07:55:30;5.57;;;5.07;;
12467;SDS011;57850;52.922;6.256;2023-05-10T07:57:56;4.80;;;4.40;;
12467;SDS011;57850;52.922;6.256;2023-05-10T08:00:25;4.28;;;3.65;;
12467;SDS011;57850;52.922;6.256;2023-05-10T08:02:54;4.65;;;4.18;;
12467;SDS011;57850;52.922;6.256;2023-05-10T08:05:20;5.22;;;4.05;;
12467;SDS011;57850;52.922;6.256;2023-05-10T08:07:47;4.78;;;4.18;;
12467;SDS011;57850;52.922;6.256;2023-05-10T08:10:13;4.78;;;4.38;;
12467;SDS011;57850;52.922;6.256;2023-05-10T08:12:40;4.70;;;4.30;;
12467;SDS011;57850;52.922;6.256;2023-05-10T08:15:07;4.72;;;4.32;;
12467;SDS011;57850;52.922;6.256;2023-05-10T08:17:34;5.75;;;4.80;;
12467;SDS011;57850;52.922;6.256;2023-05-10T08:20:03;4.15;;;3.75;;
12467;SDS011;57850;52.922;6.256;2023-05-10T08:22:30;4.55;;;4.15;;
12467;SDS011;57850;52.922;6.256;2023-05-10T08:24:56;4.38;;;4.00;;
12467;SDS011;57850;52.922;6.256;2023-05-10T08:27:22;4.18;;;3.83;;
12467;SDS011;57850;52.922;6.256;2023-05-10T08:29:49;3.83;;;3.53;;
12467;SDS011;57850;52.922;6.256;2023-05-10T08:32:15;4.28;;;3.88;;
12467;SDS011;57850;52.922;6.256;2023-05-10T08:34:43;4.53;;;4.05;;
12467;SDS011;57850;52.922;6.256;2023-05-10T08:37:10;6.93;;;4.15;;
12467;SDS011;57850;52.922;6.256;2023-05-10T08:39:38;5.10;;;4.68;;
12467;SDS011;57850;52.922;6.256;2023-05-10T08:42:04;5.75;;;4.43;;
12467;SDS011;57850;52.922;6.256;2023-05-10T08:44:34;4.47;;;4.07;;
12467;SDS011;57850;52.922;6.256;2023-05-10T08:47:02;5.13;;;3.97;;
12467;SDS011;57850;52.922;6.256;2023-05-10T08:49:32;5.78;;;4.72;;
12467;SDS011;57850;52.922;6.256;2023-05-10T08:51:59;3.80;;;3.50;;
12467;SDS011;57850;52.922;6.256;2023-05-10T08:54:32;4.57;;;3.83;;
12467;SDS011;57850;52.922;6.256;2023-05-10T08:56:59;5.00;;;4.22;;
12467;SDS011;57850;52.922;6.256;2023-05-10T08:59:26;5.55;;;4.30;;
12467;SDS011;57850;52.922;6.256;2023-05-10T09:01:57;5.20;;;4.63;;
12467;SDS011;57850;52.922;6.256;2023-05-10T09:04:24;4.38;;;3.97;;
12467;SDS011;57850;52.922;6.256;2023-05-10T09:06:51;5.32;;;4.75;;
12467;SDS011;57850;52.922;6.256;2023-05-10T09:09:18;5.78;;;5.15;;
12467;SDS011;57850;52.922;6.256;2023-05-10T09:11:47;5.10;;;4.60;;
12467;SDS011;57850;52.922;6.256;2023-05-10T09:14:14;6.22;;;5.13;;
12467;SDS011;57850;52.922;6.256;2023-05-10T09:16:42;5.00;;;4.38;;
12467;SDS011;57850;52.922;6.256;2023-05-10T09:19:09;5.35;;;4.57;;
12467;SDS011;57850;52.922;6.256;2023-05-10T09:21:35;5.00;;;4.50;;
12467;SDS011;57850;52.922;6.256;2023-05-10T09:24:03;4.43;;;4.00;;
12467;SDS011;57850;52.922;6.256;2023-05-10T09:26:31;4.60;;;4.10;;
12467;SDS011;57850;52.922;6.256;2023-05-10T09:28:59;4.63;;;3.90;;
12467;SDS011;57850;52.922;6.256;2023-05-10T09:34:09;4.88;;;4.47;;
12467;SDS011;57850;52.922;6.256;2023-05-10T09:36:36;5.00;;;4.50;;
12467;SDS011;57850;52.922;6.256;2023-05-10T09:39:02;4.88;;;4.38;;
12467;SDS011;57850;52.922;6.256;2023-05-10T09:41:29;5.07;;;4.18;;
12467;SDS011;57850;52.922;6.256;2023-05-10T09:43:55;4.30;;;3.90;;
12467;SDS011;57850;52.922;6.256;2023-05-10T09:46:24;4.75;;;4.10;;
12467;SDS011;57850;52.922;6.256;2023-05-10T09:48:51;5.40;;;4.90;;
12467;SDS011;57850;52.922;6.256;2023-05-10T09:51:21;5.00;;;4.50;;
12467;SDS011;57850;52.922;6.256;2023-05-10T09:53:48;5.07;;;4.57;;
12467;SDS011;57850;52.922;6.256;2023-05-10T09:56:34;5.80;;;4.90;;
12467;SDS011;57850;52.922;6.256;2023-05-10T09:59:02;5.13;;;4.60;;
12467;SDS011;57850;52.922;6.256;2023-05-10T10:01:30;5.85;;;5.28;;
12467;SDS011;57850;52.922;6.256;2023-05-10T10:03:57;5.43;;;4.85;;
12467;SDS011;57850;52.922;6.256;2023-05-10T10:06:24;6.03;;;5.45;;
12467;SDS011;57850;52.922;6.256;2023-05-10T10:08:51;5.35;;;4.85;;
12467;SDS011;57850;52.922;6.256;2023-05-10T10:11:19;4.80;;;4.40;;
12467;SDS011;57850;52.922;6.256;2023-05-10T10:13:46;5.60;;;4.75;;
12467;SDS011;57850;52.922;6.256;2023-05-10T10:16:13;5.25;;;4.75;;
12467;SDS011;57850;52.922;6.256;2023-05-10T10:18:41;5.93;;;5.30;;
12467;SDS011;57850;52.922;6.256;2023-05-10T10:21:08;6.72;;;5.15;;
12467;SDS011;57850;52.922;6.256;2023-05-10T10:23:35;5.45;;;4.55;;
12467;SDS011;57850;52.922;6.256;2023-05-10T10:26:01;5.90;;;5.38;;
12467;SDS011;57850;52.922;6.256;2023-05-10T10:28:32;5.03;;;4.60;;
12467;SDS011;57850;52.922;6.256;2023-05-10T10:31:12;5.80;;;4.72;;
12467;SDS011;57850;52.922;6.256;2023-05-10T10:33:54;6.28;;;5.70;;
12467;SDS011;57850;52.922;6.256;2023-05-10T10:36:25;4.80;;;4.40;;
12467;SDS011;57850;52.922;6.256;2023-05-10T10:38:59;5.65;;;5.15;;
12467;SDS011;57850;52.922;6.256;2023-05-10T10:41:27;6.18;;;5.53;;
12467;SDS011;57850;52.922;6.256;2023-05-10T10:47:00;5.82;;;5.22;;
12467;SDS011;57850;52.922;6.256;2023-05-10T10:49:29;6.30;;;4.40;;
12467;SDS011;57850;52.922;6.256;2023-05-10T10:52:13;5.60;;;5.10;;
12467;SDS011;57850;52.922;6.256;2023-05-10T10:54:52;4.72;;;4.28;;
12467;SDS011;57850;52.922;6.256;2023-05-10T10:57:24;7.38;;;4.80;;
12467;SDS011;57850;52.922;6.256;2023-05-10T10:59:51;5.10;;;4.60;;
12467;SDS011;57850;52.922;6.256;2023-05-10T11:02:34;6.28;;;5.18;;
12467;SDS011;57850;52.922;6.256;2023-05-10T11:08:17;4.85;;;4.43;;
12467;SDS011;57850;52.922;6.256;2023-05-10T11:10:50;4.50;;;4.10;;
12467;SDS011;57850;52.922;6.256;2023-05-10T11:13:38;6.55;;;4.65;;
12467;SDS011;57850;52.922;6.256;2023-05-10T11:16:15;5.13;;;4.63;;
12467;SDS011;57850;52.922;6.256;2023-05-10T11:18:59;4.90;;;4.40;;
12467;SDS011;57850;52.922;6.256;2023-05-10T11:21:28;7.22;;;4.07;;
12467;SDS011;57850;52.922;6.256;2023-05-10T11:23:56;5.15;;;4.63;;
12467;SDS011;57850;52.922;6.256;2023-05-10T11:26:24;4.88;;;4.07;;
12467;SDS011;57850;52.922;6.256;2023-05-10T11:28:52;5.22;;;4.72;;
12467;SDS011;57850;52.922;6.256;2023-05-10T11:31:20;4.82;;;4.32;;
12467;SDS011;57850;52.922;6.256;2023-05-10T11:33:50;5.50;;;5.00;;
12467;SDS011;57850;52.922;6.256;2023-05-10T11:36:18;5.30;;;4.80;;
12467;SDS011;57850;52.922;6.256;2023-05-10T11:38:55;5.40;;;4.90;;
12467;SDS011;57850;52.922;6.256;2023-05-10T11:41:22;7.13;;;5.45;;
12467;SDS011;57850;52.922;6.256;2023-05-10T11:43:50;8.68;;;6.70;;
12467;SDS011;57850;52.922;6.256;2023-05-10T11:46:19;8.07;;;6.93;;
12467;SDS011;57850;52.922;6.256;2023-05-10T11:48:46;8.85;;;7.47;;
12467;SDS011;57850;52.922;6.256;2023-05-10T11:51:15;10.43;;;7.47;;
12467;SDS011;57850;52.922;6.256;2023-05-10T11:53:41;9.55;;;8.18;;
12467;SDS011;57850;52.922;6.256;2023-05-10T11:56:09;12.73;;;9.15;;
12467;SDS011;57850;52.922;6.256;2023-05-10T11:58:37;12.25;;;8.65;;
12467;SDS011;57850;52.922;6.256;2023-05-10T12:01:05;11.57;;;9.55;;
12467;SDS011;57850;52.922;6.256;2023-05-10T12:03:34;12.13;;;9.10;;
12467;SDS011;57850;52.922;6.256;2023-05-10T12:06:01;11.43;;;9.63;;
12467;SDS011;57850;52.922;6.256;2023-05-10T12:08:29;13.52;;;10.15;;
12467;SDS011;57850;52.922;6.256;2023-05-10T12:11:03;11.00;;;9.63;;
12467;SDS011;57850;52.922;6.256;2023-05-10T12:13:32;12.52;;;9.45;;
12467;SDS011;57850;52.922;6.256;2023-05-10T12:16:11;11.32;;;8.55;;
12467;SDS011;57850;52.922;6.256;2023-05-10T12:18:38;15.48;;;9.68;;
12467;SDS011;57850;52.922;6.256;2023-05-10T12:21:06;11.95;;;9.52;;
12467;SDS011;57850;52.922;6.256;2023-05-10T12:23:33;13.23;;;10.07;;
12467;SDS011;57850;52.922;6.256;2023-05-10T12:26:01;13.50;;;9.60;;
12467;SDS011;57850;52.922;6.256;2023-05-10T12:28:29;15.80;;;10.05;;
12467;SDS011;57850;52.922;6.256;2023-05-10T12:30:57;11.98;;;9.57;;
12467;SDS011;57850;52.922;6.256;2023-05-10T12:33:25;14.25;;;9.95;;
12467;SDS011;57850;52.922;6.256;2023-05-10T12:35:52;11.10;;;9.00;;
12467;SDS011;57850;52.922;6.256;2023-05-10T12:38:25;11.70;;;9.48;;
12467;SDS011;57850;52.922;6.256;2023-05-10T12:40:54;15.35;;;10.88;;
12467;SDS011;57850;52.922;6.256;2023-05-10T12:43:21;14.63;;;10.85;;
12467;SDS011;57850;52.922;6.256;2023-05-10T12:45:48;13.48;;;10.90;;
12467;SDS011;57850;52.922;6.256;2023-05-10T12:48:16;15.65;;;10.27;;
12467;SDS011;57850;52.922;6.256;2023-05-10T12:50:43;13.07;;;10.35;;
12467;SDS011;57850;52.922;6.256;2023-05-10T12:53:10;11.35;;;9.30;;
12467;SDS011;57850;52.922;6.256;2023-05-10T12:55:36;10.35;;;8.95;;
12467;SDS011;57850;52.922;6.256;2023-05-10T12:58:03;11.65;;;9.00;;
12467;SDS011;57850;52.922;6.256;2023-05-10T13:00:29;10.52;;;9.15;;
12467;SDS011;57850;52.922;6.256;2023-05-10T13:02:56;10.85;;;9.05;;
12467;SDS011;57850;52.922;6.256;2023-05-10T13:05:24;10.63;;;9.20;;
12467;SDS011;57850;52.922;6.256;2023-05-10T13:07:50;10.20;;;8.70;;
12467;SDS011;57850;52.922;6.256;2023-05-10T13:10:17;12.30;;;8.63;;
12467;SDS011;57850;52.922;6.256;2023-05-10T13:12:44;13.05;;;8.63;;
12467;SDS011;57850;52.922;6.256;2023-05-10T13:15:11;10.40;;;8.07;;
12467;SDS011;57850;52.922;6.256;2023-05-10T13:17:37;9.57;;;8.13;;
12467;SDS011;57850;52.922;6.256;2023-05-10T13:20:06;11.43;;;9.40;;
12467;SDS011;57850;52.922;6.256;2023-05-10T13:22:34;10.18;;;8.45;;
12467;SDS011;57850;52.922;6.256;2023-05-10T13:25:01;10.90;;;9.15;;
12467;SDS011;57850;52.922;6.256;2023-05-10T13:27:27;10.18;;;9.07;;
12467;SDS011;57850;52.922;6.256;2023-05-10T13:29:54;9.90;;;8.85;;
12467;SDS011;57850;52.922;6.256;2023-05-10T13:32:20;12.48;;;9.80;;
12467;SDS011;57850;52.922;6.256;2023-05-10T13:34:47;12.68;;;10.07;;
12467;SDS011;57850;52.922;6.256;2023-05-10T13:37:14;11.95;;;9.00;;
12467;SDS011;57850;52.922;6.256;2023-05-10T13:39:42;11.70;;;9.40;;
12467;SDS011;57850;52.922;6.256;2023-05-10T13:42:09;10.90;;;9.23;;
12467;SDS011;57850;52.922;6.256;2023-05-10T13:44:35;10.60;;;8.93;;
12467;SDS011;57850;52.922;6.256;2023-05-10T13:47:03;11.95;;;9.80;;
12467;SDS011;57850;52.922;6.256;2023-05-10T13:49:30;10.20;;;8.68;;
12467;SDS011;57850;52.922;6.256;2023-05-10T13:51:56;11.85;;;9.98;;
12467;SDS011;57850;52.922;6.256;2023-05-10T13:54:23;12.65;;;9.05;;
12467;SDS011;57850;52.922;6.256;2023-05-10T13:56:52;11.18;;;9.13;;
12467;SDS011;57850;52.922;6.256;2023-05-10T13:59:19;10.65;;;9.52;;
12467;SDS011;57850;52.922;6.256;2023-05-10T14:01:45;11.25;;;9.57;;
12467;SDS011;57850;52.922;6.256;2023-05-10T14:04:12;12.50;;;9.18;;
12467;SDS011;57850;52.922;6.256;2023-05-10T14:06:38;10.25;;;9.15;;
12467;SDS011;57850;52.922;6.256;2023-05-10T14:09:05;11.35;;;9.20;;
12467;SDS011;57850;52.922;6.256;2023-05-10T14:11:31;9.50;;;8.50;;
12467;SDS011;57850;52.922;6.256;2023-05-10T14:13:59;10.05;;;9.05;;
12467;SDS011;57850;52.922;6.256;2023-05-10T14:16:26;10.77;;;9.10;;
12467;SDS011;57850;52.922;6.256;2023-05-10T14:18:52;9.88;;;8.82;;
12467;SDS011;57850;52.922;6.256;2023-05-10T14:21:19;10.65;;;8.68;;
12467;SDS011;57850;52.922;6.256;2023-05-10T14:23:45;10.30;;;9.30;;
12467;SDS011;57850;52.922;6.256;2023-05-10T14:26:12;9.25;;;7.93;;
12467;SDS011;57850;52.922;6.256;2023-05-10T14:28:38;9.02;;;8.13;;
12467;SDS011;57850;52.922;6.256;2023-05-10T14:31:06;8.70;;;7.45;;
12467;SDS011;57850;52.922;6.256;2023-05-10T14:33:33;8.20;;;6.63;;
12467;SDS011;57850;52.922;6.256;2023-05-10T14:35:59;8.07;;;7.25;;
12467;SDS011;57850;52.922;6.256;2023-05-10T14:38:28;8.90;;;6.88;;
12467;SDS011;57850;52.922;6.256;2023-05-10T14:40:54;7.70;;;6.85;;
12467;SDS011;57850;52.922;6.256;2023-05-10T14:43:21;8.18;;;7.03;;
12467;SDS011;57850;52.922;6.256;2023-05-10T14:45:47;8.68;;;7.35;;
12467;SDS011;57850;52.922;6.256;2023-05-10T14:48:16;11.38;;;6.82;;
12467;SDS011;57850;52.922;6.256;2023-05-10T14:50:42;6.97;;;6.28;;
12467;SDS011;57850;52.922;6.256;2023-05-10T14:53:09;7.25;;;6.32;;